Terminal Aerodrome Forecast
Issued by NWS

Home | Current Version | Previous Version | Text Only | Print | Product List | Glossary On
Versions: 1 2 3 4 5 6 7 8 9 10 11 12 13 14 15 16
000
FTUS42 TJSJ 271138
TAFJSJ
TAF
TJSJ 271138Z 2712/2812 09007KT P6SM FEW022 SCT050 SCT090
     FM271300 08012KT P6SM FEW030 SCT050
     FM271630 07012KT P6SM VCTS SCT025CB SCT050
     FM272300 09008KT P6SM SCT040
     FM280100 12004KT P6SM FEW026=

USA.gov is the U.S. government's official web portal to all federal, state and local government web resources and services.